71TS weather

CLOSED Circle C Ranch Airport
Saginaw, Texas, United States

Public forecast

Using degrees Fahrenheit for public forecast. Weather courtesy of forecast.io.

Closest aviation weather report (METAR) to Circle C Ranch Airport

Closest report is Fort Worth Alliance Airport, 5.7 nm (10.6 km) NNW. Retrieved 2020/06/04 23:53 UTC (55 minutes ago):

KAFW 042353Z 17011KT 10SM FEW055 BKN250 33/21 A2977 RMK AO2 SLP065 T03330211 10356 20328 56020

Closest aviation forecast (TAF) to Circle C Ranch Airport

Closest forecast is Fort Worth Alliance Airport, 5.7 nm (10.6 km) NNW. Retrieved 2020-06-05 00:42 UTC (6 minutes ago):

TAF KAFW 042339Z 0500/0524 17009KT P6SM FEW250 FM050300 17007KT P6SM VCTS BKN100CB FM050900 19005KT P6SM SCT250 FM051900 18006KT P6SM FEW250